Time;durP1;ratioP1;P1;durP2;ratioP2;P2;SDS_P1;SDS_P2;PMS_P1;PMS_P2;Temp;Humidity;BMP_temperature;BMP_pressure;BME280_temperature;BME280_humidity;BME280_pressure;Samples;Min_cycle;Max_cycle;Signal;HPM_P1;HPM_P2
2022/10/20 00:01:21;;;;;;;7.50;5.77;;;9.50;99.90;;;;;;5040141;28;20518;-81
2022/10/20 00:03:48;;;;;;;9.20;5.43;;;9.50;99.90;;;;;;5056503;28;20415;-81
2022/10/20 00:06:17;;;;;;;6.00;5.40;;;9.40;99.90;;;;;;5040947;28;20408;-81
2022/10/20 00:08:44;;;;;;;8.77;5.43;;;9.30;99.90;;;;;;5057258;28;20791;-81
2022/10/20 00:11:11;;;;;;;6.67;5.50;;;9.40;99.90;;;;;;5074922;28;20406;-81
2022/10/20 00:13:37;;;;;;;6.60;5.83;;;9.40;99.90;;;;;;5056619;28;20802;-81
2022/10/20 00:16:04;;;;;;;10.93;6.00;;;9.40;99.90;;;;;;5056903;28;20426;-81
2022/10/20 00:18:30;;;;;;;10.23;6.47;;;9.30;99.90;;;;;;5023270;28;20412;-81
2022/10/20 00:20:55;;;;;;;8.00;6.10;;;9.20;99.90;;;;;;5039656;28;20423;-80
2022/10/20 00:23:21;;;;;;;9.80;6.63;;;9.30;99.90;;;;;;5039410;28;20246;-81
2022/10/20 00:25:47;;;;;;;11.13;6.73;;;8.80;99.90;;;;;;5056330;28;20232;-81
2022/10/20 00:28:13;;;;;;;7.13;5.70;;;9.30;99.90;;;;;;5055762;28;20185;-81
2022/10/20 00:30:38;;;;;;;7.33;5.87;;;9.40;99.90;;;;;;5055298;28;20177;-81
2022/10/20 00:33:05;;;;;;;9.90;6.10;;;9.30;99.90;;;;;;5040033;28;20427;-81
2022/10/20 00:35:32;;;;;;;9.10;5.77;;;9.30;99.90;;;;;;5040867;28;20239;-82
2022/10/20 00:37:58;;;;;;;7.90;5.87;;;9.30;99.90;;;;;;5004296;28;20412;-81
2022/10/20 00:40:24;;;;;;;7.57;6.23;;;9.30;99.90;;;;;;5036122;28;20431;-81
2022/10/20 00:42:50;;;;;;;8.30;5.90;;;9.30;99.90;;;;;;5020252;28;20408;-81
2022/10/20 00:45:18;;;;;;;7.10;6.40;;;9.30;99.90;;;;;;5036765;28;20428;-81
2022/10/20 00:47:46;;;;;;;7.03;6.33;;;9.20;99.90;;;;;;5019649;28;20619;-80
2022/10/20 00:50:16;;;;;;;8.90;6.50;;;9.20;99.90;;;;;;5019470;28;20819;-81
2022/10/20 00:52:44;;;;;;;7.13;5.93;;;9.30;99.90;;;;;;5035539;28;20860;-81
2022/10/20 00:55:13;;;;;;;7.50;6.70;;;9.30;99.90;;;;;;5002753;28;20497;-81
2022/10/20 00:57:42;;;;;;;7.47;6.67;;;9.30;99.90;;;;;;5035453;28;20420;-81
2022/10/20 01:00:08;;;;;;;9.60;6.73;;;9.40;99.90;;;;;;5019560;28;20916;-81
2022/10/20 01:02:34;;;;;;;8.50;7.60;;;9.30;99.90;;;;;;5002801;28;20783;-81
2022/10/20 01:05:00;;;;;;;7.57;6.23;;;9.40;99.90;;;;;;5018743;28;20467;-81
2022/10/20 01:07:26;;;;;;;10.47;7.10;;;9.40;99.90;;;;;;5003042;28;20478;-81
2022/10/20 01:09:52;;;;;;;11.73;7.60;;;9.40;99.90;;;;;;5003469;28;20452;-81
2022/10/20 01:13:02;;;;;;;11.23;7.80;;;9.10;99.90;;;;;;5019296;28;20277;-81
2022/10/20 01:16:10;;;;;;;9.27;7.50;;;9.40;99.90;;;;;;5053219;28;20439;-81
2022/10/20 01:18:50;;;;;;;9.83;7.23;;;9.40;99.90;;;;;;5012976;28;20416;-83
2022/10/20 01:21:38;;;;;;;9.90;7.37;;;9.50;99.90;;;;;;5018874;28;20477;-81
2022/10/20 01:24:12;;;;;;;8.07;6.30;;;9.50;99.90;;;;;;5035194;28;20544;-80
2022/10/20 01:27:19;;;;;;;7.83;7.03;;;9.50;99.90;;;;;;5053539;28;20416;-83
2022/10/20 01:29:53;;;;;;;8.10;7.30;;;9.60;99.90;;;;;;5018065;28;20456;-81
2022/10/20 01:32:39;;;;;;;9.23;7.00;;;9.60;99.90;;;;;;5052619;28;20432;-81
2022/10/20 01:35:10;;;;;;;7.57;6.30;;;9.70;99.90;;;;;;5035287;28;20436;-81
2022/10/20 01:37:40;;;;;;;8.20;7.40;;;9.50;99.90;;;;;;5018575;28;20462;-79
2022/10/20 01:40:13;;;;;;;9.47;7.50;;;9.50;99.90;;;;;;5034656;28;20412;-80
2022/10/20 01:42:41;;;;;;;8.27;6.20;;;9.50;99.90;;;;;;5034565;28;20423;-81
2022/10/20 01:45:08;;;;;;;7.60;6.83;;;9.50;99.90;;;;;;5034921;28;20444;-80
2022/10/20 01:47:35;;;;;;;9.50;7.43;;;9.50;99.90;;;;;;5035072;28;20537;-81
2022/10/20 01:50:04;;;;;;;9.27;7.47;;;9.40;99.90;;;;;;5053016;28;20462;-81
2022/10/20 01:52:31;;;;;;;9.03;6.50;;;9.40;99.90;;;;;;5018515;28;20416;-81
2022/10/20 01:54:56;;;;;;;8.33;7.20;;;9.40;99.90;;;;;;5018582;28;20439;-81
2022/10/20 01:57:31;;;;;;;8.20;7.37;;;8.90;99.90;;;;;;5053091;28;20791;-81
2022/10/20 02:00:07;;;;;;;8.83;7.33;;;9.30;99.90;;;;;;5053410;28;20173;-81
2022/10/20 02:02:47;;;;;;;9.53;7.77;;;9.20;99.90;;;;;;5018664;28;20412;-81
2022/10/20 02:05:50;;;;;;;8.17;7.00;;;9.20;99.90;;;;;;5034448;28;20450;-81
2022/10/20 02:08:29;;;;;;;10.33;7.33;;;9.20;99.90;;;;;;5034353;28;20415;-82
2022/10/20 02:11:01;;;;;;;9.60;7.33;;;9.10;99.90;;;;;;5034016;28;20450;-82
2022/10/20 02:13:28;;;;;;;9.07;8.00;;;9.20;99.90;;;;;;5018221;28;20905;-81
2022/10/20 02:16:03;;;;;;;9.73;7.30;;;9.20;99.90;;;;;;5017846;28;20432;-80
2022/10/20 02:18:38;;;;;;;7.60;6.83;;;9.20;99.90;;;;;;5033919;28;20422;-81
2022/10/20 02:21:05;;;;;;;10.97;7.20;;;9.10;99.90;;;;;;5017254;28;20432;-81
2022/10/20 02:23:34;;;;;;;8.00;7.20;;;9.10;99.90;;;;;;5052060;28;20435;-80
2022/10/20 02:26:02;;;;;;;8.17;7.03;;;9.10;99.90;;;;;;5001038;28;20429;-81
2022/10/20 02:28:29;;;;;;;9.07;7.93;;;9.10;99.90;;;;;;5018077;28;20408;-81
2022/10/20 02:30:55;;;;;;;9.37;7.37;;;9.10;99.90;;;;;;5017596;28;20416;-81
2022/10/20 02:33:22;;;;;;;10.27;7.90;;;8.70;99.90;;;;;;5033519;28;20419;-80
2022/10/20 02:35:54;;;;;;;10.93;7.50;;;9.00;99.90;;;;;;5017942;28;20531;-81
2022/10/20 02:38:19;;;;;;;9.30;7.03;;;9.00;99.90;;;;;;5033664;28;20459;-81
2022/10/20 02:40:45;;;;;;;11.97;7.63;;;9.00;99.90;;;;;;5017585;28;20421;-81
2022/10/20 02:43:11;;;;;;;7.50;6.33;;;8.60;99.90;;;;;;5051338;28;20174;-81
2022/10/20 02:45:37;;;;;;;8.10;7.30;;;8.90;99.90;;;;;;5051839;28;20478;-81
2022/10/20 02:48:03;;;;;;;10.47;8.03;;;9.00;99.90;;;;;;5017435;28;20181;-81
2022/10/20 02:50:29;;;;;;;12.30;8.37;;;9.00;99.90;;;;;;5000769;28;20495;-81
2022/10/20 02:52:55;;;;;;;7.97;6.83;;;9.10;99.90;;;;;;5002957;28;20428;-82
2022/10/20 02:55:20;;;;;;;11.33;8.00;;;9.10;99.90;;;;;;5037237;28;20736;-83
2022/10/20 02:57:46;;;;;;;10.83;7.50;;;9.10;99.90;;;;;;5004873;28;20631;-81
2022/10/20 03:00:12;;;;;;;10.33;7.73;;;9.10;99.90;;;;;;4988391;28;20193;-80
2022/10/20 03:02:38;;;;;;;11.07;7.70;;;9.10;99.90;;;;;;5037387;28;20170;-81
2022/10/20 03:05:04;;;;;;;8.17;7.10;;;9.10;99.90;;;;;;5005214;28;20436;-81
2022/10/20 03:07:30;;;;;;;8.13;7.20;;;9.10;99.90;;;;;;5021339;28;20178;-82
2022/10/20 03:09:55;;;;;;;8.90;8.00;;;9.00;99.90;;;;;;5037573;28;20462;-82
2022/10/20 03:12:21;;;;;;;8.50;7.17;;;9.00;99.90;;;;;;4988248;28;20178;-81
2022/10/20 03:14:46;;;;;;;8.17;7.30;;;9.00;99.90;;;;;;5020861;28;20197;-82
2022/10/20 03:17:12;;;;;;;8.40;6.70;;;8.60;99.90;;;;;;5020910;28;20198;-81
2022/10/20 03:19:39;;;;;;;8.33;6.50;;;9.00;99.90;;;;;;5004853;28;20205;-81
2022/10/20 03:22:05;;;;;;;8.93;7.47;;;9.00;99.90;;;;;;5004355;28;20216;-81
2022/10/20 03:24:31;;;;;;;10.63;7.00;;;9.00;99.90;;;;;;5004135;28;20502;-82
2022/10/20 03:26:56;;;;;;;8.23;7.30;;;9.00;99.90;;;;;;5037134;28;20845;-81
2022/10/20 03:29:22;;;;;;;7.57;6.77;;;9.10;99.90;;;;;;5037725;28;20284;-82
2022/10/20 03:31:47;;;;;;;8.00;7.03;;;8.50;99.90;;;;;;5020268;28;20192;-81
2022/10/20 03:34:13;;;;;;;7.70;6.30;;;8.70;99.90;;;;;;5020336;28;20233;-81
2022/10/20 03:36:39;;;;;;;7.80;6.87;;;9.00;99.90;;;;;;5020854;28;20174;-81
2022/10/20 03:39:04;;;;;;;8.30;6.90;;;8.90;99.90;;;;;;4988176;28;20205;-81
2022/10/20 03:41:31;;;;;;;8.97;7.50;;;8.80;99.90;;;;;;5004188;28;20192;-81
2022/10/20 03:43:56;;;;;;;9.63;8.63;;;9.10;99.90;;;;;;5036982;28;20189;-82
2022/10/20 03:46:22;;;;;;;7.77;6.97;;;8.80;99.90;;;;;;5036998;28;20405;-81
2022/10/20 03:48:48;;;;;;;8.77;6.83;;;8.80;99.90;;;;;;5036610;28;20304;-81
2022/10/20 03:51:13;;;;;;;8.33;6.53;;;9.10;99.90;;;;;;5020497;28;20177;-81
2022/10/20 03:53:39;;;;;;;7.13;6.40;;;9.10;99.90;;;;;;5003688;28;20244;-81
2022/10/20 03:56:07;;;;;;;7.43;6.07;;;9.00;99.90;;;;;;5020143;28;20197;-82
2022/10/20 03:58:33;;;;;;;7.43;6.70;;;9.00;99.90;;;;;;5036744;28;20319;-80
2022/10/20 04:00:58;;;;;;;8.20;6.40;;;9.00;99.90;;;;;;5036379;28;20948;-81
2022/10/20 04:03:24;;;;;;;7.60;6.90;;;8.50;99.90;;;;;;5036531;28;20416;-81
2022/10/20 04:05:49;;;;;;;10.07;6.80;;;9.00;99.90;;;;;;5003583;28;20209;-81
2022/10/20 04:08:15;;;;;;;7.93;6.70;;;9.00;99.90;;;;;;5020474;28;20221;-81
2022/10/20 04:10:41;;;;;;;7.40;6.50;;;8.60;99.90;;;;;;5054348;28;20185;-81
2022/10/20 04:13:06;;;;;;;10.10;7.60;;;9.00;99.90;;;;;;4987416;28;20178;-82
2022/10/20 04:15:32;;;;;;;8.93;6.63;;;8.80;99.90;;;;;;4987067;28;20220;-80
2022/10/20 04:17:58;;;;;;;7.77;6.97;;;9.00;99.90;;;;;;5019970;28;20239;-81
2022/10/20 04:20:23;;;;;;;9.10;7.60;;;8.60;99.90;;;;;;5020220;28;20173;-81
2022/10/20 04:22:49;;;;;;;8.43;6.80;;;9.10;99.90;;;;;;4987151;28;20419;-82
2022/10/20 04:25:15;;;;;;;10.73;6.97;;;9.10;99.90;;;;;;5003727;28;20236;-81
2022/10/20 04:27:41;;;;;;;8.80;6.87;;;9.10;99.90;;;;;;5020184;28;20182;-82
2022/10/20 04:30:08;;;;;;;8.23;6.30;;;8.90;99.90;;;;;;5036818;28;20813;-81
2022/10/20 04:32:33;;;;;;;9.10;7.27;;;9.10;99.90;;;;;;5036588;28;20431;-81
2022/10/20 04:34:59;;;;;;;8.27;6.90;;;8.70;99.90;;;;;;5030720;28;20435;-81
2022/10/20 04:37:25;;;;;;;8.17;6.63;;;9.10;99.90;;;;;;5024211;28;20177;-83
2022/10/20 04:39:50;;;;;;;8.50;7.60;;;9.20;99.90;;;;;;5057924;28;20268;-81
2022/10/20 04:42:17;;;;;;;8.33;6.50;;;9.10;99.90;;;;;;5026616;28;20598;-81
2022/10/20 04:44:43;;;;;;;9.43;7.00;;;9.20;99.90;;;;;;5018125;28;20738;-81
2022/10/20 04:47:09;;;;;;;7.70;6.17;;;8.90;99.90;;;;;;5001139;28;20421;-82
2022/10/20 04:49:34;;;;;;;8.40;7.40;;;9.20;99.90;;;;;;5036949;28;20216;-81
2022/10/20 04:52:00;;;;;;;11.73;7.03;;;9.20;99.90;;;;;;5055370;28;20623;-82
2022/10/20 04:54:26;;;;;;;9.60;7.57;;;9.20;99.90;;;;;;5036188;28;20454;-81
2022/10/20 04:56:52;;;;;;;8.53;7.10;;;9.20;99.90;;;;;;5020748;28;20420;-81
2022/10/20 04:59:17;;;;;;;7.70;6.40;;;8.80;99.90;;;;;;5020179;28;20185;-81
2022/10/20 05:01:43;;;;;;;8.20;6.63;;;8.80;99.90;;;;;;5026884;28;20273;-81
2022/10/20 05:04:09;;;;;;;8.23;6.63;;;9.20;99.90;;;;;;5000659;28;20202;-81
2022/10/20 05:06:35;;;;;;;8.20;7.13;;;9.30;99.90;;;;;;5034440;28;20794;-82
2022/10/20 05:09:03;;;;;;;8.97;6.40;;;9.20;99.90;;;;;;5000674;28;20548;-83
2022/10/20 05:11:30;;;;;;;8.03;6.80;;;9.20;99.90;;;;;;5016705;28;20448;-81
2022/10/20 05:13:56;;;;;;;13.03;7.37;;;9.20;99.90;;;;;;5037340;28;20412;-81
2022/10/20 05:16:22;;;;;;;9.17;6.83;;;9.20;99.90;;;;;;5019750;28;20481;-82
2022/10/20 05:18:50;;;;;;;8.50;7.00;;;8.90;99.90;;;;;;5037511;28;20182;-82
2022/10/20 05:21:22;;;;;;;11.23;7.30;;;9.20;99.90;;;;;;5054779;28;20798;-81
2022/10/20 05:23:48;;;;;;;11.20;7.60;;;9.20;99.90;;;;;;5020118;28;20432;-81
2022/10/20 05:26:17;;;;;;;9.70;6.50;;;9.30;99.90;;;;;;4984031;28;20478;-81
2022/10/20 05:28:48;;;;;;;10.00;7.23;;;9.30;99.90;;;;;;5046236;28;20447;-81
2022/10/20 05:31:16;;;;;;;10.27;7.30;;;9.30;99.90;;;;;;5016528;28;20423;-81
2022/10/20 05:33:47;;;;;;;10.10;7.03;;;9.30;99.90;;;;;;5020208;28;20888;-82
2022/10/20 05:36:15;;;;;;;7.90;6.20;;;9.30;99.90;;;;;;5040108;28;20545;-83
2022/10/20 05:38:40;;;;;;;10.67;7.47;;;9.30;99.90;;;;;;5022924;28;20415;-82
2022/10/20 05:41:11;;;;;;;9.17;6.83;;;9.30;99.90;;;;;;5023347;28;20515;-81
2022/10/20 05:43:38;;;;;;;9.07;6.60;;;9.40;99.90;;;;;;5017424;28;20186;-83
2022/10/20 05:46:04;;;;;;;10.47;7.43;;;9.60;99.90;;;;;;5041206;28;20432;-81
2022/10/20 05:48:30;;;;;;;11.87;6.77;;;9.70;99.90;;;;;;5031322;28;20426;-82
2022/10/20 05:51:10;;;;;;;8.00;6.80;;;9.80;99.90;;;;;;5049454;28;20470;-82
2022/10/20 05:53:36;;;;;;;9.47;6.60;;;9.70;99.90;;;;;;5037041;28;20466;-81
2022/10/20 05:56:03;;;;;;;15.63;7.70;;;9.80;99.90;;;;;;5003624;28;20437;-82
2022/10/20 05:58:29;;;;;;;11.30;7.80;;;10.10;99.90;;;;;;5004361;28;20413;-81
2022/10/20 06:01:04;;;;;;;11.87;7.30;;;10.60;99.90;;;;;;5037486;28;20791;-82
2022/10/20 06:03:29;;;;;;;9.83;7.80;;;10.80;99.90;;;;;;5021300;28;20686;-81
2022/10/20 06:05:59;;;;;;;7.67;6.30;;;11.00;99.90;;;;;;5037392;28;20432;-81
2022/10/20 06:08:28;;;;;;;10.87;7.67;;;11.20;99.90;;;;;;5054578;28;20166;-82
2022/10/20 06:10:53;;;;;;;11.43;7.00;;;11.30;99.90;;;;;;5036470;28;20417;-81
2022/10/20 06:13:19;;;;;;;7.00;6.30;;;11.50;99.90;;;;;;5003722;28;20787;-81
2022/10/20 06:15:46;;;;;;;10.33;7.10;;;11.50;99.90;;;;;;4970380;28;20218;-81
2022/10/20 06:18:12;;;;;;;9.00;6.80;;;11.70;99.90;;;;;;5018693;28;20188;-81
2022/10/20 06:20:38;;;;;;;7.93;6.53;;;11.70;99.90;;;;;;5018276;28;20413;-81
2022/10/20 06:23:03;;;;;;;8.30;6.73;;;11.80;99.90;;;;;;5035725;28;20446;-82
2022/10/20 06:25:29;;;;;;;9.50;6.50;;;11.90;99.90;;;;;;5036293;28;20225;-82
2022/10/20 06:27:55;;;;;;;8.97;6.33;;;12.00;99.90;;;;;;5018686;28;20201;-82
2022/10/20 06:30:20;;;;;;;9.20;7.03;;;12.00;99.90;;;;;;5036629;28;20596;-81
2022/10/20 06:32:46;;;;;;;9.47;7.57;;;12.00;99.90;;;;;;5036969;28;20185;-82
2022/10/20 06:35:11;;;;;;;7.70;6.50;;;12.10;99.90;;;;;;5036285;28;20230;-83
2022/10/20 06:37:37;;;;;;;9.73;6.67;;;12.20;99.90;;;;;;5003808;28;20181;-80
2022/10/20 06:40:03;;;;;;;7.77;7.00;;;12.20;99.90;;;;;;5019835;28;20185;-81
2022/10/20 06:42:29;;;;;;;9.00;7.73;;;12.30;99.90;;;;;;5003390;28;20236;-82
2022/10/20 06:44:54;;;;;;;8.70;7.80;;;12.40;99.90;;;;;;5019277;28;20431;-82
2022/10/20 06:47:20;;;;;;;9.90;7.37;;;12.40;99.90;;;;;;5019814;28;20184;-81
2022/10/20 06:49:49;;;;;;;9.30;6.90;;;12.50;99.90;;;;;;5020023;28;20244;-81
2022/10/20 06:52:14;;;;;;;11.90;8.20;;;12.40;99.90;;;;;;5020477;28;20776;-81
2022/10/20 06:54:40;;;;;;;9.00;7.30;;;12.50;99.90;;;;;;5053942;28;20425;-82
2022/10/20 06:57:06;;;;;;;7.40;6.70;;;12.60;99.90;;;;;;5019933;28;20178;-81
2022/10/20 06:59:31;;;;;;;9.57;6.43;;;12.70;99.90;;;;;;5036979;28;20185;-82
2022/10/20 07:01:57;;;;;;;8.40;7.23;;;12.70;99.90;;;;;;5003352;28;20192;-81
2022/10/20 07:04:23;;;;;;;10.60;6.87;;;12.70;99.90;;;;;;5020794;28;20271;-82
2022/10/20 07:06:48;;;;;;;9.17;7.63;;;12.80;99.90;;;;;;4987623;28;20174;-82
2022/10/20 07:09:17;;;;;;;7.37;6.57;;;12.80;99.90;;;;;;5020576;28;20210;-82
2022/10/20 07:11:43;;;;;;;8.20;7.30;;;12.80;99.90;;;;;;5036590;28;20174;-81
2022/10/20 07:14:10;;;;;;;8.80;7.33;;;12.90;99.90;;;;;;5020322;28;20428;-81
2022/10/20 07:16:36;;;;;;;9.10;7.23;;;12.90;99.90;;;;;;5054473;28;20408;-82
2022/10/20 07:19:02;;;;;;;7.50;6.70;;;12.90;99.90;;;;;;5020295;28;20414;-80
2022/10/20 07:21:30;;;;;;;7.83;7.03;;;13.00;99.90;;;;;;5036901;28;20268;-82
2022/10/20 07:23:56;;;;;;;9.47;6.70;;;13.00;99.90;;;;;;5036765;28;21210;-83
2022/10/20 07:26:30;;;;;;;8.13;6.80;;;13.10;99.90;;;;;;5036611;28;20431;-82
2022/10/20 07:28:58;;;;;;;8.67;6.73;;;13.10;99.90;;;;;;5035598;28;20482;-82
2022/10/20 07:31:30;;;;;;;10.03;7.27;;;13.20;99.90;;;;;;5036716;28;20423;-82
2022/10/20 07:33:58;;;;;;;8.57;6.93;;;13.20;99.90;;;;;;5019057;28;20416;-83
2022/10/20 07:36:29;;;;;;;10.13;6.33;;;13.30;99.90;;;;;;5036557;28;20416;-80
2022/10/20 07:38:57;;;;;;;8.83;7.10;;;13.30;99.90;;;;;;5036631;28;20408;-81
2022/10/20 07:41:24;;;;;;;10.03;7.17;;;13.30;99.90;;;;;;5022789;28;20477;-81
2022/10/20 07:43:50;;;;;;;10.50;7.50;;;13.40;99.90;;;;;;5039005;28;20533;-81
2022/10/20 07:46:16;;;;;;;7.37;6.67;;;13.40;99.90;;;;;;5022280;28;20905;-81
2022/10/20 07:48:42;;;;;;;8.90;6.97;;;13.50;99.90;;;;;;5038771;28;20593;-81
2022/10/20 07:51:29;;;;;;;8.20;6.90;;;13.50;99.90;;;;;;5022918;28;20174;-81
2022/10/20 07:54:05;;;;;;;7.67;6.87;;;13.60;99.90;;;;;;5057831;28;20224;-81
2022/10/20 07:56:37;;;;;;;8.83;7.80;;;13.70;99.90;;;;;;5021648;28;20411;-81
2022/10/20 07:59:04;;;;;;;11.10;7.03;;;13.80;99.90;;;;;;5040415;28;20921;-81
2022/10/20 08:01:31;;;;;;;8.60;6.20;;;13.90;99.90;;;;;;5040048;28;20413;-81
2022/10/20 08:03:56;;;;;;;7.50;6.77;;;14.10;99.90;;;;;;5057279;28;20416;-84
2022/10/20 08:06:22;;;;;;;13.93;7.50;;;14.10;99.90;;;;;;5023383;28;20419;-82
2022/10/20 08:08:48;;;;;;;9.60;7.10;;;14.20;99.90;;;;;;5022846;28;20209;-81
2022/10/20 08:11:14;;;;;;;7.50;6.80;;;14.40;99.90;;;;;;4989962;28;20215;-81
2022/10/20 08:13:40;;;;;;;8.43;6.83;;;14.40;99.90;;;;;;5006323;28;20182;-81
2022/10/20 08:16:07;;;;;;;10.93;6.40;;;14.60;99.90;;;;;;5006250;28;20248;-81
2022/10/20 08:18:33;;;;;;;8.10;7.07;;;14.60;99.90;;;;;;5023221;28;20413;-81
2022/10/20 08:21:17;;;;;;;10.10;6.80;;;14.70;99.90;;;;;;5039563;28;20996;-83
2022/10/20 08:23:44;;;;;;;7.37;6.07;;;14.70;99.90;;;;;;5038692;28;20182;-81
2022/10/20 08:26:11;;;;;;;9.23;7.37;;;14.80;99.90;;;;;;5006527;28;20431;-81
2022/10/20 08:28:37;;;;;;;9.67;6.80;;;14.80;99.90;;;;;;5038864;28;20408;-81
2022/10/20 08:31:05;;;;;;;11.00;7.23;;;14.80;99.90;;;;;;5006018;28;20439;-83
2022/10/20 08:33:31;;;;;;;10.23;6.40;;;14.80;99.90;;;;;;5022325;28;20237;-81
2022/10/20 08:36:05;;;;;;;7.93;7.10;;;14.80;99.90;;;;;;5038547;28;20473;-82
2022/10/20 08:38:31;;;;;;;9.27;7.30;;;14.70;99.90;;;;;;5039124;28;20407;-82
2022/10/20 08:40:59;;;;;;;8.80;7.30;;;14.80;99.90;;;;;;5022938;28;21088;-81
2022/10/20 08:43:25;;;;;;;8.50;7.67;;;14.70;99.90;;;;;;5022269;28;21231;-81
2022/10/20 08:45:51;;;;;;;8.33;7.40;;;14.70;99.90;;;;;;5039744;28;20832;-83
2022/10/20 08:48:26;;;;;;;8.73;7.47;;;14.70;99.90;;;;;;5006136;28;20416;-81
2022/10/20 08:50:52;;;;;;;8.47;7.00;;;14.70;99.90;;;;;;5005581;28;20200;-80
2022/10/20 08:53:21;;;;;;;8.60;6.83;;;14.80;99.90;;;;;;5005927;28;20443;-81
2022/10/20 08:55:47;;;;;;;8.67;7.20;;;14.80;99.90;;;;;;5038681;28;20432;-81
2022/10/20 08:58:19;;;;;;;8.00;7.13;;;14.80;99.90;;;;;;5038749;28;20986;-80
2022/10/20 09:00:47;;;;;;;11.77;7.37;;;14.90;99.90;;;;;;5006092;28;20795;-82
2022/10/20 09:03:17;;;;;;;7.53;6.70;;;14.90;99.90;;;;;;5055946;28;20417;-81
2022/10/20 09:05:47;;;;;;;9.40;6.83;;;15.00;99.90;;;;;;5021291;28;20496;-81
2022/10/20 09:08:13;;;;;;;11.30;7.10;;;14.90;99.90;;;;;;5005657;28;20949;-81
2022/10/20 09:10:50;;;;;;;8.87;7.10;;;15.00;99.90;;;;;;5004888;28;20625;-81
2022/10/20 09:13:25;;;;;;;8.40;6.97;;;15.00;99.90;;;;;;5038193;28;20178;-83
2022/10/20 09:16:02;;;;;;;8.43;6.50;;;15.00;99.90;;;;;;5038293;28;20818;-81
2022/10/20 09:18:29;;;;;;;8.00;6.70;;;15.00;99.90;;;;;;5006193;28;20503;-81
2022/10/20 09:20:59;;;;;;;7.77;6.50;;;15.10;99.90;;;;;;5005691;28;20425;-81
2022/10/20 09:23:39;;;;;;;8.40;6.90;;;15.10;99.90;;;;;;5021068;28;20413;-81
2022/10/20 09:26:12;;;;;;;8.30;7.40;;;15.10;99.90;;;;;;5021542;28;20865;-81
2022/10/20 09:28:38;;;;;;;7.13;6.27;;;15.20;99.90;;;;;;5037963;28;20913;-81
2022/10/20 09:31:29;;;;;;;8.47;7.40;;;15.10;99.90;;;;;;5037989;28;20503;-82
2022/10/20 09:33:55;;;;;;;9.47;7.17;;;15.10;99.90;;;;;;5037708;28;20213;-82
2022/10/20 09:36:23;;;;;;;10.83;6.30;;;15.10;99.90;;;;;;5005158;28;20421;-81
2022/10/20 09:38:50;;;;;;;7.07;6.40;;;15.10;99.90;;;;;;5038117;28;20297;-82
2022/10/20 09:41:29;;;;;;;11.13;7.60;;;15.20;99.90;;;;;;5005406;28;20416;-82
2022/10/20 09:43:59;;;;;;;13.93;7.70;;;15.20;99.90;;;;;;5021204;28;20981;-81
2022/10/20 09:46:29;;;;;;;8.27;7.20;;;15.20;99.90;;;;;;5038361;28;20495;-80
2022/10/20 09:48:55;;;;;;;8.77;7.00;;;15.20;99.90;;;;;;5037663;28;20484;-82
2022/10/20 09:51:24;;;;;;;7.67;6.87;;;15.20;99.90;;;;;;5021211;28;20843;-81
2022/10/20 09:54:13;;;;;;;10.53;6.43;;;15.20;99.90;;;;;;5038496;28;20408;-82
2022/10/20 09:56:41;;;;;;;11.10;6.90;;;15.10;99.90;;;;;;5037517;28;20408;-81
2022/10/20 09:59:35;;;;;;;7.10;6.20;;;15.20;99.90;;;;;;5022248;28;20424;-81
2022/10/20 10:02:26;;;;;;;7.30;6.60;;;15.10;99.90;;;;;;5020568;28;20470;-81
2022/10/20 10:04:53;;;;;;;13.27;7.67;;;15.10;99.90;;;;;;5029446;28;20436;-81
2022/10/20 10:07:25;;;;;;;9.60;6.80;;;15.10;99.90;;;;;;5021483;28;20444;-82
2022/10/20 10:09:59;;;;;;;10.43;7.20;;;15.10;99.90;;;;;;5037672;28;20455;-81
2022/10/20 10:12:27;;;;;;;7.40;6.63;;;15.10;99.90;;;;;;5020719;28;20823;-82
2022/10/20 10:14:57;;;;;;;9.97;6.90;;;15.10;99.90;;;;;;5037788;28;20944;-81
2022/10/20 10:17:37;;;;;;;10.30;7.60;;;15.20;99.90;;;;;;5057877;28;20921;-81
2022/10/20 10:20:09;;;;;;;10.30;8.40;;;15.10;99.90;;;;;;5052630;28;20455;-83
2022/10/20 10:22:34;;;;;;;8.90;7.73;;;15.10;99.90;;;;;;5019665;28;20445;-83
2022/10/20 10:25:01;;;;;;;8.20;7.00;;;15.10;99.90;;;;;;4985042;28;20471;-85
2022/10/20 10:27:34;;;;;;;9.63;8.00;;;15.10;99.90;;;;;;5034978;28;20259;-81
2022/10/20 10:30:29;;;;;;;10.30;7.93;;;15.10;99.90;;;;;;5020250;28;20498;-80
2022/10/20 10:32:56;;;;;;;9.30;7.67;;;15.10;99.90;;;;;;5054717;28;20396;-82
2022/10/20 10:35:39;;;;;;;11.37;8.00;;;15.00;99.90;;;;;;5068604;28;20500;-81
2022/10/20 10:38:08;;;;;;;11.87;7.50;;;15.00;99.90;;;;;;5074701;28;20898;-81
2022/10/20 10:40:40;;;;;;;11.93;8.20;;;15.00;99.90;;;;;;5056450;28;20408;-81
2022/10/20 10:43:28;;;;;;;15.77;8.30;;;15.00;99.90;;;;;;5056610;28;20411;-81
2022/10/20 10:46:03;;;;;;;9.90;8.13;;;15.00;99.90;;;;;;5074349;28;20815;-81
2022/10/20 10:48:44;;;;;;;8.27;7.40;;;15.00;99.90;;;;;;5039075;28;20415;-82
2022/10/20 10:51:38;;;;;;;10.10;7.80;;;15.00;99.90;;;;;;5041862;28;20454;-83
2022/10/20 10:54:22;;;;;;;9.50;7.73;;;15.10;99.90;;;;;;5040786;28;20485;-83
2022/10/20 10:56:53;;;;;;;12.10;7.23;;;15.10;99.90;;;;;;5058112;28;20969;-81
2022/10/20 10:59:30;;;;;;;9.23;7.27;;;15.10;99.90;;;;;;5077651;28;20418;-81
2022/10/20 11:02:13;;;;;;;21.50;8.33;;;15.10;99.90;;;;;;5040705;28;20429;-83
2022/10/20 11:04:42;;;;;;;16.00;6.83;;;15.20;99.90;;;;;;5054622;28;20434;-83
2022/10/20 11:07:12;;;;;;;12.40;8.00;;;15.20;99.90;;;;;;5072400;28;20498;-83
2022/10/20 11:10:02;;;;;;;10.10;7.20;;;15.20;99.90;;;;;;5053757;28;20459;-81
2022/10/20 11:13:01;;;;;;;9.23;8.13;;;15.20;99.90;;;;;;5071865;28;20412;-82
2022/10/20 11:15:57;;;;;;;9.80;7.20;;;15.20;99.90;;;;;;5057723;28;21325;-81
2022/10/20 11:18:47;;;;;;;12.20;8.40;;;15.20;99.90;;;;;;5051622;28;20434;-81
2022/10/20 11:21:22;;;;;;;14.07;7.93;;;15.20;99.90;;;;;;5057848;28;20418;-83
2022/10/20 11:24:03;;;;;;;10.43;7.80;;;15.20;99.90;;;;;;5040879;28;20431;-82
2022/10/20 11:26:43;;;;;;;7.77;6.97;;;15.10;99.90;;;;;;5075771;28;20407;-82
2022/10/20 11:29:16;;;;;;;8.90;7.70;;;15.20;99.90;;;;;;5075570;28;20851;-82
2022/10/20 11:32:01;;;;;;;11.40;8.53;;;15.20;99.90;;;;;;5075688;28;20413;-82
2022/10/20 11:34:32;;;;;;;13.07;7.20;;;15.10;99.90;;;;;;5057517;28;20506;-82
2022/10/20 11:37:14;;;;;;;8.73;7.80;;;15.10;99.90;;;;;;5041312;28;20506;-82
2022/10/20 11:39:51;;;;;;;11.90;7.20;;;15.10;99.90;;;;;;5040924;28;20426;-81
2022/10/20 11:42:26;;;;;;;11.57;7.60;;;15.10;99.90;;;;;;5075248;28;20905;-82
2022/10/20 11:44:54;;;;;;;11.07;8.33;;;15.10;99.90;;;;;;5075922;28;20434;-81
2022/10/20 11:47:33;;;;;;;10.47;8.20;;;15.00;99.90;;;;;;5024649;28;20792;-82
2022/10/20 11:49:59;;;;;;;11.03;8.80;;;15.10;99.90;;;;;;5074842;28;20462;-81
2022/10/20 11:52:43;;;;;;;9.13;8.20;;;15.10;99.90;;;;;;5075156;28;21058;-81
2022/10/20 11:55:24;;;;;;;10.57;9.30;;;15.10;99.90;;;;;;5074777;28;20427;-83
2022/10/20 11:58:18;;;;;;;8.87;7.97;;;15.00;99.90;;;;;;5057059;28;20415;-82
2022/10/20 12:01:00;;;;;;;9.17;8.20;;;15.00;99.90;;;;;;5040585;28;20407;-82
2022/10/20 12:03:53;;;;;;;10.27;8.20;;;15.10;99.90;;;;;;5057758;28;20407;-83
2022/10/20 12:06:49;;;;;;;11.10;8.60;;;15.10;99.90;;;;;;5057229;28;20418;-82
2022/10/20 12:09:42;;;;;;;10.23;8.67;;;15.10;99.90;;;;;;5075648;28;20504;-81
2022/10/20 12:12:16;;;;;;;10.87;9.10;;;15.10;99.90;;;;;;5057436;28;20415;-83
2022/10/20 12:14:48;;;;;;;12.00;9.17;;;15.00;99.90;;;;;;5040756;28;20435;-82
2022/10/20 12:17:29;;;;;;;11.13;8.20;;;15.10;99.90;;;;;;5040311;28;20426;-82
2022/10/20 12:20:21;;;;;;;8.70;7.90;;;15.00;99.90;;;;;;5057572;28;20411;-85
2022/10/20 12:22:57;;;;;;;10.23;8.73;;;15.00;99.90;;;;;;5018075;28;20460;-83
2022/10/20 12:25:26;;;;;;;12.43;8.80;;;14.90;99.90;;;;;;5025202;28;20467;-84
2022/10/20 12:28:23;;;;;;;11.33;8.87;;;15.00;99.90;;;;;;5006279;28;20424;-85
2022/10/20 12:31:01;;;;;;;11.10;9.97;;;15.00;99.90;;;;;;5007009;28;20548;-83
2022/10/20 12:33:59;;;;;;;11.80;9.13;;;14.90;99.90;;;;;;4990559;28;20508;-85
2022/10/20 12:36:24;;;;;;;11.47;9.60;;;14.90;99.90;;;;;;5022037;28;20508;-83
2022/10/20 12:39:12;;;;;;;12.20;9.67;;;14.90;99.90;;;;;;5005472;28;20460;-85
2022/10/20 12:42:00;;;;;;;13.70;9.90;;;14.80;99.90;;;;;;5009231;28;20249;-84
2022/10/20 12:44:29;;;;;;;13.33;9.27;;;14.70;99.90;;;;;;5006740;28;20860;-84
2022/10/20 12:47:06;;;;;;;16.93;11.47;;;14.70;99.90;;;;;;4990401;28;20782;-84
2022/10/20 12:49:51;;;;;;;14.23;11.00;;;14.70;99.90;;;;;;5022609;28;20484;-83
2022/10/20 12:52:20;;;;;;;15.93;10.60;;;14.60;99.90;;;;;;5023280;28;20405;-84
2022/10/20 12:54:52;;;;;;;12.60;10.60;;;14.60;99.90;;;;;;5007299;28;20513;-84
2022/10/20 12:57:35;;;;;;;10.90;9.70;;;14.60;99.90;;;;;;4991267;28;20986;-84
2022/10/20 13:00:03;;;;;;;12.40;10.00;;;14.60;99.90;;;;;;5006356;28;20409;-85
2022/10/20 13:02:31;;;;;;;14.73;10.47;;;14.60;99.90;;;;;;5023088;28;20457;-85
2022/10/20 13:05:24;;;;;;;16.40;10.77;;;14.70;99.90;;;;;;5006024;28;20437;-84
2022/10/20 13:07:51;;;;;;;12.20;9.80;;;14.60;99.90;;;;;;5005327;28;20435;-84